sensor_id;sensor_type;location;lat;lon;timestamp;temperature;humidity
65231;DHT22;51813;40.666;16.602;2023-04-24T00:00:04;18.00;61.90
65231;DHT22;51813;40.666;16.602;2023-04-24T00:02:38;18.00;61.90
65231;DHT22;51813;40.666;16.602;2023-04-24T00:05:05;18.00;62.00
65231;DHT22;51813;40.666;16.602;2023-04-24T00:07:31;18.00;62.00
65231;DHT22;51813;40.666;16.602;2023-04-24T00:09:57;18.00;62.00
65231;DHT22;51813;40.666;16.602;2023-04-24T00:12:23;18.00;62.00
65231;DHT22;51813;40.666;16.602;2023-04-24T00:14:48;18.00;62.10
65231;DHT22;51813;40.666;16.602;2023-04-24T00:17:14;18.00;62.10
65231;DHT22;51813;40.666;16.602;2023-04-24T00:19:40;18.00;62.20
65231;DHT22;51813;40.666;16.602;2023-04-24T00:22:06;18.00;62.20
65231;DHT22;51813;40.666;16.602;2023-04-24T00:24:32;18.00;62.20
65231;DHT22;51813;40.666;16.602;2023-04-24T00:26:57;18.00;62.20
65231;DHT22;51813;40.666;16.602;2023-04-24T00:29:23;18.00;62.30
65231;DHT22;51813;40.666;16.602;2023-04-24T00:31:49;18.00;62.30
65231;DHT22;51813;40.666;16.602;2023-04-24T00:34:15;18.00;62.30
65231;DHT22;51813;40.666;16.602;2023-04-24T00:36:40;18.00;62.40
65231;DHT22;51813;40.666;16.602;2023-04-24T00:39:06;18.00;62.40
65231;DHT22;51813;40.666;16.602;2023-04-24T00:41:34;18.00;62.40
65231;DHT22;51813;40.666;16.602;2023-04-24T00:44:00;18.00;62.40
65231;DHT22;51813;40.666;16.602;2023-04-24T00:46:26;18.00;62.40
65231;DHT22;51813;40.666;16.602;2023-04-24T00:48:52;18.00;62.40
65231;DHT22;51813;40.666;16.602;2023-04-24T00:51:18;18.00;62.40
65231;DHT22;51813;40.666;16.602;2023-04-24T00:53:44;18.00;62.40
65231;DHT22;51813;40.666;16.602;2023-04-24T00:56:10;18.00;62.50
65231;DHT22;51813;40.666;16.602;2023-04-24T00:58:36;18.00;62.40
65231;DHT22;51813;40.666;16.602;2023-04-24T01:01:02;18.00;62.40
65231;DHT22;51813;40.666;16.602;2023-04-24T01:03:32;18.00;62.50
65231;DHT22;51813;40.666;16.602;2023-04-24T01:05:59;18.00;62.50
65231;DHT22;51813;40.666;16.602;2023-04-24T01:08:26;18.00;62.50
65231;DHT22;51813;40.666;16.602;2023-04-24T01:10:53;18.00;62.50
65231;DHT22;51813;40.666;16.602;2023-04-24T01:13:20;18.00;62.60
65231;DHT22;51813;40.666;16.602;2023-04-24T01:15:46;18.00;62.60
65231;DHT22;51813;40.666;16.602;2023-04-24T01:18:13;18.00;62.60
65231;DHT22;51813;40.666;16.602;2023-04-24T01:20:42;18.00;62.60
65231;DHT22;51813;40.666;16.602;2023-04-24T01:23:09;18.00;62.60
65231;DHT22;51813;40.666;16.602;2023-04-24T01:25:36;17.90;62.50
65231;DHT22;51813;40.666;16.602;2023-04-24T01:28:02;18.00;62.60
65231;DHT22;51813;40.666;16.602;2023-04-24T01:30:28;18.00;62.60
65231;DHT22;51813;40.666;16.602;2023-04-24T01:32:55;18.00;62.60
65231;DHT22;51813;40.666;16.602;2023-04-24T01:35:21;17.90;62.60
65231;DHT22;51813;40.666;16.602;2023-04-24T01:37:47;17.90;62.60
65231;DHT22;51813;40.666;16.602;2023-04-24T01:40:13;17.90;62.60
65231;DHT22;51813;40.666;16.602;2023-04-24T01:42:41;17.90;62.60
65231;DHT22;51813;40.666;16.602;2023-04-24T01:45:09;18.00;63.00
65231;DHT22;51813;40.666;16.602;2023-04-24T01:47:35;17.90;62.60
65231;DHT22;51813;40.666;16.602;2023-04-24T01:50:01;18.00;62.70
65231;DHT22;51813;40.666;16.602;2023-04-24T01:52:27;17.90;62.60
65231;DHT22;51813;40.666;16.602;2023-04-24T01:54:56;17.90;62.60
65231;DHT22;51813;40.666;16.602;2023-04-24T01:57:24;17.90;62.60
65231;DHT22;51813;40.666;16.602;2023-04-24T01:59:51;17.90;62.60
65231;DHT22;51813;40.666;16.602;2023-04-24T02:02:17;18.00;62.70
65231;DHT22;51813;40.666;16.602;2023-04-24T02:04:42;17.90;62.70
65231;DHT22;51813;40.666;16.602;2023-04-24T02:07:08;17.90;62.70
65231;DHT22;51813;40.666;16.602;2023-04-24T02:09:34;18.00;62.70
65231;DHT22;51813;40.666;16.602;2023-04-24T02:11:59;18.00;62.70
65231;DHT22;51813;40.666;16.602;2023-04-24T02:14:26;17.90;62.70
65231;DHT22;51813;40.666;16.602;2023-04-24T02:16:51;17.90;62.70
65231;DHT22;51813;40.666;16.602;2023-04-24T02:19:18;17.90;62.60
65231;DHT22;51813;40.666;16.602;2023-04-24T02:21:44;17.90;62.70
65231;DHT22;51813;40.666;16.602;2023-04-24T02:24:10;17.90;62.70
65231;DHT22;51813;40.666;16.602;2023-04-24T02:26:36;17.90;62.70
65231;DHT22;51813;40.666;16.602;2023-04-24T02:29:01;17.90;62.70
65231;DHT22;51813;40.666;16.602;2023-04-24T02:31:27;17.90;62.70
65231;DHT22;51813;40.666;16.602;2023-04-24T02:33:53;17.90;62.70
65231;DHT22;51813;40.666;16.602;2023-04-24T02:36:19;17.90;62.70
65231;DHT22;51813;40.666;16.602;2023-04-24T02:38:44;17.90;62.70
65231;DHT22;51813;40.666;16.602;2023-04-24T02:41:10;17.90;62.70
65231;DHT22;51813;40.666;16.602;2023-04-24T02:43:36;17.90;62.80
65231;DHT22;51813;40.666;16.602;2023-04-24T02:46:02;17.90;62.80
65231;DHT22;51813;40.666;16.602;2023-04-24T02:48:28;17.90;62.80
65231;DHT22;51813;40.666;16.602;2023-04-24T02:50:54;17.90;62.80
65231;DHT22;51813;40.666;16.602;2023-04-24T02:53:19;17.90;62.70
65231;DHT22;51813;40.666;16.602;2023-04-24T02:55:45;17.90;62.70
65231;DHT22;51813;40.666;16.602;2023-04-24T02:58:11;17.90;62.80
65231;DHT22;51813;40.666;16.602;2023-04-24T03:00:38;17.90;62.80
65231;DHT22;51813;40.666;16.602;2023-04-24T03:03:04;17.90;62.70
65231;DHT22;51813;40.666;16.602;2023-04-24T03:05:31;17.90;62.70
65231;DHT22;51813;40.666;16.602;2023-04-24T03:07:56;17.90;62.70
65231;DHT22;51813;40.666;16.602;2023-04-24T03:10:22;17.90;62.70
65231;DHT22;51813;40.666;16.602;2023-04-24T03:12:48;17.90;62.70
65231;DHT22;51813;40.666;16.602;2023-04-24T03:15:14;17.90;62.60
65231;DHT22;51813;40.666;16.602;2023-04-24T03:17:40;17.90;62.60
65231;DHT22;51813;40.666;16.602;2023-04-24T03:20:06;17.90;62.60
65231;DHT22;51813;40.666;16.602;2023-04-24T03:22:33;17.90;62.60
65231;DHT22;51813;40.666;16.602;2023-04-24T03:24:59;17.90;62.50
65231;DHT22;51813;40.666;16.602;2023-04-24T03:27:25;17.90;62.60
65231;DHT22;51813;40.666;16.602;2023-04-24T03:29:51;17.90;62.50
65231;DHT22;51813;40.666;16.602;2023-04-24T03:32:23;17.90;62.60
65231;DHT22;51813;40.666;16.602;2023-04-24T03:34:49;17.90;62.50
65231;DHT22;51813;40.666;16.602;2023-04-24T03:37:16;17.90;62.60
65231;DHT22;51813;40.666;16.602;2023-04-24T03:39:42;17.90;62.50
65231;DHT22;51813;40.666;16.602;2023-04-24T03:42:07;17.90;62.50
65231;DHT22;51813;40.666;16.602;2023-04-24T03:44:34;17.90;62.50
65231;DHT22;51813;40.666;16.602;2023-04-24T03:47:00;17.90;62.50
65231;DHT22;51813;40.666;16.602;2023-04-24T03:49:26;17.90;62.50
65231;DHT22;51813;40.666;16.602;2023-04-24T03:51:51;17.90;62.40
65231;DHT22;51813;40.666;16.602;2023-04-24T03:54:18;17.90;62.40
65231;DHT22;51813;40.666;16.602;2023-04-24T03:56:44;17.90;62.40
65231;DHT22;51813;40.666;16.602;2023-04-24T03:59:10;17.90;62.40
65231;DHT22;51813;40.666;16.602;2023-04-24T04:01:36;17.90;62.40
65231;DHT22;51813;40.666;16.602;2023-04-24T04:04:06;17.90;62.40
65231;DHT22;51813;40.666;16.602;2023-04-24T04:06:32;17.90;62.30
65231;DHT22;51813;40.666;16.602;2023-04-24T04:08:58;17.90;62.30
65231;DHT22;51813;40.666;16.602;2023-04-24T04:11:24;17.90;62.20
65231;DHT22;51813;40.666;16.602;2023-04-24T04:13:50;17.90;62.20
65231;DHT22;51813;40.666;16.602;2023-04-24T04:16:16;17.90;62.90
65231;DHT22;51813;40.666;16.602;2023-04-24T04:18:43;17.90;62.90
65231;DHT22;51813;40.666;16.602;2023-04-24T04:21:09;17.90;62.10
65231;DHT22;51813;40.666;16.602;2023-04-24T04:23:35;17.90;62.10
65231;DHT22;51813;40.666;16.602;2023-04-24T04:26:01;17.90;62.00
65231;DHT22;51813;40.666;16.602;2023-04-24T04:28:27;17.90;62.00
65231;DHT22;51813;40.666;16.602;2023-04-24T04:30:53;17.90;62.70
65231;DHT22;51813;40.666;16.602;2023-04-24T04:33:21;17.90;62.00
65231;DHT22;51813;40.666;16.602;2023-04-24T04:35:47;17.90;61.90
65231;DHT22;51813;40.666;16.602;2023-04-24T04:38:18;17.90;61.90
65231;DHT22;51813;40.666;16.602;2023-04-24T04:40:44;17.90;61.90
65231;DHT22;51813;40.666;16.602;2023-04-24T04:43:10;17.90;61.70
65231;DHT22;51813;40.666;16.602;2023-04-24T04:45:37;17.90;61.70
65231;DHT22;51813;40.666;16.602;2023-04-24T04:48:04;17.90;61.70
65231;DHT22;51813;40.666;16.602;2023-04-24T04:50:32;17.90;61.70
65231;DHT22;51813;40.666;16.602;2023-04-24T04:52:58;18.00;61.60
65231;DHT22;51813;40.666;16.602;2023-04-24T04:55:24;18.00;61.60
65231;DHT22;51813;40.666;16.602;2023-04-24T04:57:50;18.00;61.50
65231;DHT22;51813;40.666;16.602;2023-04-24T05:00:16;17.90;61.50
65231;DHT22;51813;40.666;16.602;2023-04-24T05:02:42;17.90;61.50
65231;DHT22;51813;40.666;16.602;2023-04-24T05:05:08;17.90;61.50
65231;DHT22;51813;40.666;16.602;2023-04-24T05:07:34;17.90;61.50
65231;DHT22;51813;40.666;16.602;2023-04-24T05:09:59;17.90;61.40
65231;DHT22;51813;40.666;16.602;2023-04-24T05:12:25;18.00;61.40
65231;DHT22;51813;40.666;16.602;2023-04-24T05:14:51;17.90;61.40
65231;DHT22;51813;40.666;16.602;2023-04-24T05:17:17;17.90;61.30
65231;DHT22;51813;40.666;16.602;2023-04-24T05:19:42;17.90;61.20
65231;DHT22;51813;40.666;16.602;2023-04-24T05:22:08;17.90;61.20
65231;DHT22;51813;40.666;16.602;2023-04-24T05:24:35;17.90;61.30
65231;DHT22;51813;40.666;16.602;2023-04-24T05:27:05;17.90;61.20
65231;DHT22;51813;40.666;16.602;2023-04-24T05:29:31;17.90;61.20
65231;DHT22;51813;40.666;16.602;2023-04-24T05:31:58;18.00;61.20
65231;DHT22;51813;40.666;16.602;2023-04-24T05:34:24;18.00;61.10
65231;DHT22;51813;40.666;16.602;2023-04-24T05:36:50;18.00;61.10
65231;DHT22;51813;40.666;16.602;2023-04-24T05:39:17;18.00;61.10
65231;DHT22;51813;40.666;16.602;2023-04-24T05:41:43;18.00;61.10
65231;DHT22;51813;40.666;16.602;2023-04-24T05:44:09;18.00;61.00
65231;DHT22;51813;40.666;16.602;2023-04-24T05:46:35;18.00;61.10
65231;DHT22;51813;40.666;16.602;2023-04-24T05:49:00;18.00;61.10
65231;DHT22;51813;40.666;16.602;2023-04-24T05:51:26;18.00;61.10
65231;DHT22;51813;40.666;16.602;2023-04-24T05:53:52;18.00;61.20
65231;DHT22;51813;40.666;16.602;2023-04-24T05:56:18;18.00;61.10
65231;DHT22;51813;40.666;16.602;2023-04-24T05:58:45;18.10;61.20
65231;DHT22;51813;40.666;16.602;2023-04-24T06:01:11;18.10;61.30
65231;DHT22;51813;40.666;16.602;2023-04-24T06:03:38;18.10;61.30
65231;DHT22;51813;40.666;16.602;2023-04-24T06:06:03;18.10;61.30
65231;DHT22;51813;40.666;16.602;2023-04-24T06:08:29;18.10;61.30
65231;DHT22;51813;40.666;16.602;2023-04-24T06:10:55;18.00;61.20
65231;DHT22;51813;40.666;16.602;2023-04-24T06:13:21;18.00;61.30
65231;DHT22;51813;40.666;16.602;2023-04-24T06:15:46;18.00;61.10
65231;DHT22;51813;40.666;16.602;2023-04-24T06:18:12;18.10;61.30
65231;DHT22;51813;40.666;16.602;2023-04-24T06:20:38;18.10;61.00
65231;DHT22;51813;40.666;16.602;2023-04-24T06:23:04;18.10;61.10
65231;DHT22;51813;40.666;16.602;2023-04-24T06:25:29;18.10;61.10
65231;DHT22;51813;40.666;16.602;2023-04-24T06:27:56;18.10;61.00
65231;DHT22;51813;40.666;16.602;2023-04-24T06:30:22;18.10;61.10
65231;DHT22;51813;40.666;16.602;2023-04-24T06:32:48;18.10;61.10
65231;DHT22;51813;40.666;16.602;2023-04-24T06:35:13;18.10;61.00
65231;DHT22;51813;40.666;16.602;2023-04-24T06:37:40;18.10;61.20
65231;DHT22;51813;40.666;16.602;2023-04-24T06:40:07;18.10;61.30
65231;DHT22;51813;40.666;16.602;2023-04-24T06:42:33;18.10;61.40
65231;DHT22;51813;40.666;16.602;2023-04-24T06:44:59;18.00;61.30
65231;DHT22;51813;40.666;16.602;2023-04-24T06:47:24;18.10;61.30
65231;DHT22;51813;40.666;16.602;2023-04-24T06:49:50;18.00;61.10
65231;DHT22;51813;40.666;16.602;2023-04-24T06:52:18;18.00;59.20
65231;DHT22;51813;40.666;16.602;2023-04-24T06:54:44;18.10;58.90
65231;DHT22;51813;40.666;16.602;2023-04-24T06:57:09;18.00;59.00
65231;DHT22;51813;40.666;16.602;2023-04-24T06:59:36;18.10;58.00
65231;DHT22;51813;40.666;16.602;2023-04-24T07:02:02;18.10;57.70
65231;DHT22;51813;40.666;16.602;2023-04-24T07:04:28;18.10;57.70
65231;DHT22;51813;40.666;16.602;2023-04-24T07:06:55;18.10;57.60
65231;DHT22;51813;40.666;16.602;2023-04-24T07:09:23;18.10;57.40
65231;DHT22;51813;40.666;16.602;2023-04-24T07:11:50;18.10;57.70
65231;DHT22;51813;40.666;16.602;2023-04-24T07:14:15;18.10;57.40
65231;DHT22;51813;40.666;16.602;2023-04-24T07:16:42;18.10;57.70
65231;DHT22;51813;40.666;16.602;2023-04-24T07:19:09;18.10;58.00
65231;DHT22;51813;40.666;16.602;2023-04-24T07:21:35;18.20;58.30
65231;DHT22;51813;40.666;16.602;2023-04-24T07:24:00;18.20;58.40
65231;DHT22;51813;40.666;16.602;2023-04-24T07:26:28;18.40;58.10
65231;DHT22;51813;40.666;16.602;2023-04-24T07:28:54;18.50;57.60
65231;DHT22;51813;40.666;16.602;2023-04-24T07:31:20;18.70;57.10
65231;DHT22;51813;40.666;16.602;2023-04-24T07:33:46;18.80;56.50
65231;DHT22;51813;40.666;16.602;2023-04-24T07:36:12;19.00;55.60
65231;DHT22;51813;40.666;16.602;2023-04-24T07:38:45;19.10;55.30
65231;DHT22;51813;40.666;16.602;2023-04-24T07:41:12;19.30;54.90
65231;DHT22;51813;40.666;16.602;2023-04-24T07:43:38;19.40;54.50
65231;DHT22;51813;40.666;16.602;2023-04-24T07:46:03;19.50;54.30
65231;DHT22;51813;40.666;16.602;2023-04-24T07:48:29;19.70;53.70
65231;DHT22;51813;40.666;16.602;2023-04-24T07:50:55;19.90;53.30
65231;DHT22;51813;40.666;16.602;2023-04-24T07:53:20;20.00;53.20
65231;DHT22;51813;40.666;16.602;2023-04-24T07:55:46;20.10;52.90
65231;DHT22;51813;40.666;16.602;2023-04-24T07:58:12;20.10;53.20
65231;DHT22;51813;40.666;16.602;2023-04-24T08:00:38;20.20;53.10
65231;DHT22;51813;40.666;16.602;2023-04-24T08:03:03;20.20;53.10
65231;DHT22;51813;40.666;16.602;2023-04-24T08:05:29;20.30;52.90
65231;DHT22;51813;40.666;16.602;2023-04-24T08:07:55;20.40;52.20
65231;DHT22;51813;40.666;16.602;2023-04-24T08:10:22;20.50;51.80
65231;DHT22;51813;40.666;16.602;2023-04-24T08:12:48;20.50;51.80
65231;DHT22;51813;40.666;16.602;2023-04-24T08:15:14;20.60;51.80
65231;DHT22;51813;40.666;16.602;2023-04-24T08:17:39;20.70;51.20
65231;DHT22;51813;40.666;16.602;2023-04-24T08:20:06;20.70;51.40
65231;DHT22;51813;40.666;16.602;2023-04-24T08:22:35;20.80;51.80
65231;DHT22;51813;40.666;16.602;2023-04-24T08:25:01;20.80;51.70
65231;DHT22;51813;40.666;16.602;2023-04-24T08:27:27;20.90;51.90
65231;DHT22;51813;40.666;16.602;2023-04-24T08:29:57;20.80;51.90
65231;DHT22;51813;40.666;16.602;2023-04-24T08:32:24;20.70;52.70
65231;DHT22;51813;40.666;16.602;2023-04-24T08:34:49;20.60;52.50
65231;DHT22;51813;40.666;16.602;2023-04-24T08:37:18;20.70;52.40
65231;DHT22;51813;40.666;16.602;2023-04-24T08:39:44;20.70;52.40
65231;DHT22;51813;40.666;16.602;2023-04-24T08:42:11;20.70;52.40
65231;DHT22;51813;40.666;16.602;2023-04-24T08:44:38;20.60;52.90
65231;DHT22;51813;40.666;16.602;2023-04-24T08:47:05;20.60;52.20
65231;DHT22;51813;40.666;16.602;2023-04-24T08:49:33;20.50;52.70
65231;DHT22;51813;40.666;16.602;2023-04-24T08:52:00;20.50;52.60
65231;DHT22;51813;40.666;16.602;2023-04-24T08:54:27;20.50;52.40
65231;DHT22;51813;40.666;16.602;2023-04-24T08:56:54;20.40;52.60
65231;DHT22;51813;40.666;16.602;2023-04-24T08:59:21;20.40;53.00
65231;DHT22;51813;40.666;16.602;2023-04-24T09:01:48;20.50;52.80
65231;DHT22;51813;40.666;16.602;2023-04-24T09:04:16;20.50;52.60
65231;DHT22;51813;40.666;16.602;2023-04-24T09:06:45;20.40;52.80
65231;DHT22;51813;40.666;16.602;2023-04-24T09:09:11;20.40;53.00
65231;DHT22;51813;40.666;16.602;2023-04-24T09:11:37;20.40;52.80
65231;DHT22;51813;40.666;16.602;2023-04-24T09:14:03;20.40;52.40
65231;DHT22;51813;40.666;16.602;2023-04-24T09:16:29;20.30;52.50
65231;DHT22;51813;40.666;16.602;2023-04-24T09:18:56;20.30;52.80
65231;DHT22;51813;40.666;16.602;2023-04-24T09:21:22;20.30;52.00
65231;DHT22;51813;40.666;16.602;2023-04-24T09:23:58;20.20;52.50
65231;DHT22;51813;40.666;16.602;2023-04-24T09:26:25;20.20;52.40
65231;DHT22;51813;40.666;16.602;2023-04-24T09:28:51;20.20;52.70
65231;DHT22;51813;40.666;16.602;2023-04-24T09:31:19;20.20;52.50
65231;DHT22;51813;40.666;16.602;2023-04-24T09:34:03;20.20;52.80
65231;DHT22;51813;40.666;16.602;2023-04-24T09:36:36;20.20;52.90
65231;DHT22;51813;40.666;16.602;2023-04-24T09:39:11;20.30;53.00
65231;DHT22;51813;40.666;16.602;2023-04-24T09:44:24;20.50;52.60
65231;DHT22;51813;40.666;16.602;2023-04-24T09:46:53;20.60;51.90
65231;DHT22;51813;40.666;16.602;2023-04-24T09:49:26;20.70;52.20
65231;DHT22;51813;40.666;16.602;2023-04-24T09:52:02;20.90;52.00
65231;DHT22;51813;40.666;16.602;2023-04-24T09:54:28;20.90;51.00
65231;DHT22;51813;40.666;16.602;2023-04-24T09:56:55;21.00;51.00
65231;DHT22;51813;40.666;16.602;2023-04-24T09:59:22;21.00;50.20
65231;DHT22;51813;40.666;16.602;2023-04-24T10:01:48;21.00;50.10
65231;DHT22;51813;40.666;16.602;2023-04-24T10:04:24;21.10;50.30
65231;DHT22;51813;40.666;16.602;2023-04-24T10:06:54;21.00;49.90
65231;DHT22;51813;40.666;16.602;2023-04-24T10:09:24;20.90;49.40
65231;DHT22;51813;40.666;16.602;2023-04-24T10:11:51;20.90;49.30
65231;DHT22;51813;40.666;16.602;2023-04-24T10:14:21;21.00;49.20
65231;DHT22;51813;40.666;16.602;2023-04-24T10:16:48;20.90;49.10
65231;DHT22;51813;40.666;16.602;2023-04-24T10:19:15;20.90;48.60
65231;DHT22;51813;40.666;16.602;2023-04-24T10:21:43;20.90;48.20
65231;DHT22;51813;40.666;16.602;2023-04-24T10:24:13;20.90;48.60
65231;DHT22;51813;40.666;16.602;2023-04-24T10:26:40;20.90;49.00
65231;DHT22;51813;40.666;16.602;2023-04-24T10:29:06;20.90;48.70
65231;DHT22;51813;40.666;16.602;2023-04-24T10:31:36;21.00;48.60
65231;DHT22;51813;40.666;16.602;2023-04-24T10:34:04;21.00;48.40
65231;DHT22;51813;40.666;16.602;2023-04-24T10:36:31;21.10;48.40
65231;DHT22;51813;40.666;16.602;2023-04-24T10:39:00;21.10;48.40
65231;DHT22;51813;40.666;16.602;2023-04-24T10:41:26;21.20;48.60
65231;DHT22;51813;40.666;16.602;2023-04-24T10:44:12;21.20;48.50
65231;DHT22;51813;40.666;16.602;2023-04-24T10:46:39;21.30;48.40
65231;DHT22;51813;40.666;16.602;2023-04-24T10:49:08;21.30;48.20
65231;DHT22;51813;40.666;16.602;2023-04-24T10:51:49;21.30;48.20
65231;DHT22;51813;40.666;16.602;2023-04-24T10:54:26;21.10;49.20
65231;DHT22;51813;40.666;16.602;2023-04-24T10:56:53;20.90;50.00
65231;DHT22;51813;40.666;16.602;2023-04-24T10:59:27;20.80;50.50
65231;DHT22;51813;40.666;16.602;2023-04-24T11:01:54;20.70;51.60
65231;DHT22;51813;40.666;16.602;2023-04-24T11:04:32;20.70;51.10
65231;DHT22;51813;40.666;16.602;2023-04-24T11:06:59;20.70;51.10
65231;DHT22;51813;40.666;16.602;2023-04-24T11:09:30;20.70;51.20
65231;DHT22;51813;40.666;16.602;2023-04-24T11:12:07;20.80;51.30
65231;DHT22;51813;40.666;16.602;2023-04-24T11:17:34;20.70;51.70
65231;DHT22;51813;40.666;16.602;2023-04-24T11:20:07;20.60;51.70
65231;DHT22;51813;40.666;16.602;2023-04-24T11:22:36;20.50;52.10
65231;DHT22;51813;40.666;16.602;2023-04-24T11:25:05;20.60;51.70
65231;DHT22;51813;40.666;16.602;2023-04-24T11:27:39;20.60;51.70
65231;DHT22;51813;40.666;16.602;2023-04-24T11:30:06;20.70;51.80
65231;DHT22;51813;40.666;16.602;2023-04-24T11:32:40;20.70;52.20
65231;DHT22;51813;40.666;16.602;2023-04-24T11:35:08;20.80;52.30
65231;DHT22;51813;40.666;16.602;2023-04-24T11:37:41;20.80;51.80
65231;DHT22;51813;40.666;16.602;2023-04-24T11:40:09;20.80;51.90
65231;DHT22;51813;40.666;16.602;2023-04-24T11:42:40;20.90;52.00
65231;DHT22;51813;40.666;16.602;2023-04-24T11:47:35;21.10;51.80
65231;DHT22;51813;40.666;16.602;2023-04-24T11:50:03;21.10;51.80
65231;DHT22;51813;40.666;16.602;2023-04-24T11:52:29;21.10;51.90
65231;DHT22;51813;40.666;16.602;2023-04-24T11:54:55;21.10;51.80
65231;DHT22;51813;40.666;16.602;2023-04-24T11:57:22;21.20;51.90
65231;DHT22;51813;40.666;16.602;2023-04-24T11:59:49;21.20;51.80
65231;DHT22;51813;40.666;16.602;2023-04-24T12:02:26;21.20;51.80
65231;DHT22;51813;40.666;16.602;2023-04-24T12:04:53;21.30;51.80
65231;DHT22;51813;40.666;16.602;2023-04-24T12:07:19;21.30;52.00
65231;DHT22;51813;40.666;16.602;2023-04-24T12:09:47;21.30;51.70
65231;DHT22;51813;40.666;16.602;2023-04-24T12:12:18;21.30;52.20
65231;DHT22;51813;40.666;16.602;2023-04-24T12:14:44;21.30;51.80
65231;DHT22;51813;40.666;16.602;2023-04-24T12:17:10;21.30;51.50
65231;DHT22;51813;40.666;16.602;2023-04-24T12:19:36;21.30;51.40
65231;DHT22;51813;40.666;16.602;2023-04-24T12:22:04;21.40;51.40
65231;DHT22;51813;40.666;16.602;2023-04-24T12:24:30;21.40;51.20
65231;DHT22;51813;40.666;16.602;2023-04-24T12:26:57;21.40;51.20
65231;DHT22;51813;40.666;16.602;2023-04-24T12:29:24;21.40;51.20
65231;DHT22;51813;40.666;16.602;2023-04-24T12:31:51;21.40;51.10
65231;DHT22;51813;40.666;16.602;2023-04-24T12:34:20;21.50;51.20
65231;DHT22;51813;40.666;16.602;2023-04-24T12:36:47;21.50;51.10
65231;DHT22;51813;40.666;16.602;2023-04-24T12:39:19;21.50;51.10
65231;DHT22;51813;40.666;16.602;2023-04-24T12:41:56;21.50;51.20
65231;DHT22;51813;40.666;16.602;2023-04-24T12:44:31;21.50;51.00
65231;DHT22;51813;40.666;16.602;2023-04-24T12:47:00;21.60;51.40
65231;DHT22;51813;40.666;16.602;2023-04-24T12:49:26;21.60;51.20
65231;DHT22;51813;40.666;16.602;2023-04-24T12:51:52;21.60;50.80
65231;DHT22;51813;40.666;16.602;2023-04-24T12:54:17;21.60;51.10
65231;DHT22;51813;40.666;16.602;2023-04-24T12:56:43;21.60;50.90
65231;DHT22;51813;40.666;16.602;2023-04-24T12:59:08;21.60;51.00
65231;DHT22;51813;40.666;16.602;2023-04-24T13:01:34;21.60;50.40
65231;DHT22;51813;40.666;16.602;2023-04-24T13:04:00;21.60;51.00
65231;DHT22;51813;40.666;16.602;2023-04-24T13:06:26;21.60;51.20
65231;DHT22;51813;40.666;16.602;2023-04-24T13:08:52;21.60;51.50
65231;DHT22;51813;40.666;16.602;2023-04-24T13:11:17;21.70;51.70
65231;DHT22;51813;40.666;16.602;2023-04-24T13:13:43;21.60;52.00
65231;DHT22;51813;40.666;16.602;2023-04-24T13:16:09;21.60;52.50
65231;DHT22;51813;40.666;16.602;2023-04-24T13:18:35;21.60;52.90
65231;DHT22;51813;40.666;16.602;2023-04-24T13:21:00;21.50;52.50
65231;DHT22;51813;40.666;16.602;2023-04-24T13:23:26;21.50;52.70
65231;DHT22;51813;40.666;16.602;2023-04-24T13:25:53;21.60;52.80
65231;DHT22;51813;40.666;16.602;2023-04-24T13:28:22;21.60;53.00
65231;DHT22;51813;40.666;16.602;2023-04-24T13:30:48;21.50;52.80
65231;DHT22;51813;40.666;16.602;2023-04-24T13:33:14;21.60;52.70
65231;DHT22;51813;40.666;16.602;2023-04-24T13:35:40;21.60;52.90
65231;DHT22;51813;40.666;16.602;2023-04-24T13:38:05;21.70;52.50
65231;DHT22;51813;40.666;16.602;2023-04-24T13:40:32;21.70;52.40
65231;DHT22;51813;40.666;16.602;2023-04-24T13:42:58;21.70;52.50
65231;DHT22;51813;40.666;16.602;2023-04-24T13:45:23;21.70;52.30
65231;DHT22;51813;40.666;16.602;2023-04-24T13:47:49;21.70;52.40
65231;DHT22;51813;40.666;16.602;2023-04-24T13:50:15;21.70;52.40
65231;DHT22;51813;40.666;16.602;2023-04-24T13:52:41;21.70;52.40
65231;DHT22;51813;40.666;16.602;2023-04-24T13:55:07;21.70;52.40
65231;DHT22;51813;40.666;16.602;2023-04-24T13:57:33;21.70;52.40
65231;DHT22;51813;40.666;16.602;2023-04-24T13:59:59;21.70;52.40
65231;DHT22;51813;40.666;16.602;2023-04-24T14:02:29;21.70;52.40
65231;DHT22;51813;40.666;16.602;2023-04-24T14:04:55;21.60;52.30
65231;DHT22;51813;40.666;16.602;2023-04-24T14:07:21;21.70;52.30
65231;DHT22;51813;40.666;16.602;2023-04-24T14:09:47;21.70;52.40
65231;DHT22;51813;40.666;16.602;2023-04-24T14:12:13;21.70;52.40
65231;DHT22;51813;40.666;16.602;2023-04-24T14:14:39;21.70;52.50
65231;DHT22;51813;40.666;16.602;2023-04-24T14:17:05;21.60;52.80
65231;DHT22;51813;40.666;16.602;2023-04-24T14:19:31;21.60;53.00
65231;DHT22;51813;40.666;16.602;2023-04-24T14:21:57;21.70;52.80
65231;DHT22;51813;40.666;16.602;2023-04-24T14:24:23;21.60;52.70
65231;DHT22;51813;40.666;16.602;2023-04-24T14:26:49;21.50;53.40
65231;DHT22;51813;40.666;16.602;2023-04-24T14:29:15;21.50;53.30
65231;DHT22;51813;40.666;16.602;2023-04-24T14:31:42;21.40;53.50
65231;DHT22;51813;40.666;16.602;2023-04-24T14:34:08;21.30;53.60
65231;DHT22;51813;40.666;16.602;2023-04-24T14:36:33;21.30;53.60
65231;DHT22;51813;40.666;16.602;2023-04-24T14:38:59;21.30;53.70
65231;DHT22;51813;40.666;16.602;2023-04-24T14:41:25;21.20;53.70
65231;DHT22;51813;40.666;16.602;2023-04-24T14:43:50;21.20;53.90
65231;DHT22;51813;40.666;16.602;2023-04-24T14:46:16;21.10;53.20
65231;DHT22;51813;40.666;16.602;2023-04-24T14:48:42;21.20;53.40
65231;DHT22;51813;40.666;16.602;2023-04-24T14:51:07;21.20;53.00
65231;DHT22;51813;40.666;16.602;2023-04-24T14:53:33;21.20;52.90
65231;DHT22;51813;40.666;16.602;2023-04-24T14:55:59;21.10;53.00
65231;DHT22;51813;40.666;16.602;2023-04-24T14:58:25;21.10;52.40
65231;DHT22;51813;40.666;16.602;2023-04-24T15:00:51;21.20;52.60
65231;DHT22;51813;40.666;16.602;2023-04-24T15:03:19;21.20;52.90
65231;DHT22;51813;40.666;16.602;2023-04-24T15:05:46;21.20;52.40
65231;DHT22;51813;40.666;16.602;2023-04-24T15:08:12;21.10;51.40
65231;DHT22;51813;40.666;16.602;2023-04-24T15:10:38;21.10;51.80
65231;DHT22;51813;40.666;16.602;2023-04-24T15:13:03;21.20;50.50
65231;DHT22;51813;40.666;16.602;2023-04-24T15:15:29;21.10;49.00
65231;DHT22;51813;40.666;16.602;2023-04-24T15:17:55;21.00;48.80
65231;DHT22;51813;40.666;16.602;2023-04-24T15:20:21;21.10;49.90